Heat Index SAI AWOS Graphical Display Untitled Document
Bertrand Chaffee Hospital Heliport (2NK6) Springville, New York, USA
210
06:54
19/04/2014
00
N/A
N/A
30.28
N/A
1420
38(F), 3(C)
33(F), 1(C)
38 F
81%
CLR
10
N/A
0"
N/A
06:54 zulu Wind Calm, Altimeter 30.28
METAR K2NK6 190654Z AUTO 00000KT 10SM CLR 03/01 A3028 A02 P0000
METAR:
FAA Disclaimer--Advisory Use ONLY, not for flight info-- AWOS status update. Wind sensors that were lightning damaged have been returned to MFG for repair. Loaner wind sensors installed . New lightning sensor installed reporting out to 50 miles .rainfall daily totals http://www.saiawos3.com/2NK6/pcpn.php wjs
INFO:
Wind Direction:
Wind Speed:
Wind Gust:
Wind Variable:
Altimeter:
Dens Alt:
Elev:
Temp:
Dwpt:
Wind Chill
Rel Humidity:
Ceiling:
Visibility:
Prsnt Wea:
PCPN:
Remarks:
How to read the WebPage